sensor_id;sensor_type;location;lat;lon;timestamp;P1;durP1;ratioP1;P2;durP2;ratioP2
53977;SDS011;39886;47.984;-1.586;2022-08-16T00:01:59;485.60;;;266.40;;
53977;SDS011;39886;47.984;-1.586;2022-08-16T00:04:26;485.58;;;266.48;;
53977;SDS011;39886;47.984;-1.586;2022-08-16T00:06:53;486.02;;;266.67;;
53977;SDS011;39886;47.984;-1.586;2022-08-16T00:09:19;485.58;;;265.27;;
53977;SDS011;39886;47.984;-1.586;2022-08-16T00:11:45;486.05;;;272.67;;
53977;SDS011;39886;47.984;-1.586;2022-08-16T00:14:14;487.38;;;267.40;;
53977;SDS011;39886;47.984;-1.586;2022-08-16T00:16:42;486.17;;;294.08;;
53977;SDS011;39886;47.984;-1.586;2022-08-16T00:19:09;484.23;;;292.45;;
53977;SDS011;39886;47.984;-1.586;2022-08-16T00:21:35;483.70;;;293.30;;
53977;SDS011;39886;47.984;-1.586;2022-08-16T00:24:01;482.67;;;292.15;;
53977;SDS011;39886;47.984;-1.586;2022-08-16T00:26:27;482.92;;;292.08;;
53977;SDS011;39886;47.984;-1.586;2022-08-16T00:28:53;484.55;;;292.08;;
53977;SDS011;39886;47.984;-1.586;2022-08-16T00:31:18;484.45;;;274.00;;
53977;SDS011;39886;47.984;-1.586;2022-08-16T00:33:44;486.83;;;265.77;;
53977;SDS011;39886;47.984;-1.586;2022-08-16T00:36:10;489.42;;;295.85;;
53977;SDS011;39886;47.984;-1.586;2022-08-16T00:38:35;487.38;;;266.45;;
53977;SDS011;39886;47.984;-1.586;2022-08-16T00:41:02;487.05;;;293.45;;
53977;SDS011;39886;47.984;-1.586;2022-08-16T00:43:29;488.40;;;293.60;;
53977;SDS011;39886;47.984;-1.586;2022-08-16T00:46:10;488.63;;;272.67;;
53977;SDS011;39886;47.984;-1.586;2022-08-16T00:48:37;487.55;;;273.23;;
53977;SDS011;39886;47.984;-1.586;2022-08-16T00:51:04;488.33;;;293.50;;
53977;SDS011;39886;47.984;-1.586;2022-08-16T00:53:31;488.90;;;293.77;;
53977;SDS011;39886;47.984;-1.586;2022-08-16T00:55:57;489.33;;;294.67;;
53977;SDS011;39886;47.984;-1.586;2022-08-16T00:58:28;488.85;;;293.92;;
53977;SDS011;39886;47.984;-1.586;2022-08-16T01:00:56;487.85;;;265.25;;
53977;SDS011;39886;47.984;-1.586;2022-08-16T01:03:24;487.55;;;292.75;;
53977;SDS011;39886;47.984;-1.586;2022-08-16T01:05:52;487.88;;;268.92;;
53977;SDS011;39886;47.984;-1.586;2022-08-16T01:08:19;487.70;;;292.58;;
53977;SDS011;39886;47.984;-1.586;2022-08-16T01:10:46;488.90;;;293.63;;
53977;SDS011;39886;47.984;-1.586;2022-08-16T01:13:14;487.38;;;271.05;;
53977;SDS011;39886;47.984;-1.586;2022-08-16T01:15:45;486.33;;;290.63;;
53977;SDS011;39886;47.984;-1.586;2022-08-16T01:18:15;487.98;;;271.67;;
53977;SDS011;39886;47.984;-1.586;2022-08-16T01:20:45;486.20;;;270.70;;
53977;SDS011;39886;47.984;-1.586;2022-08-16T01:23:26;487.95;;;274.75;;
53977;SDS011;39886;47.984;-1.586;2022-08-16T01:26:00;488.88;;;293.60;;
53977;SDS011;39886;47.984;-1.586;2022-08-16T01:28:27;488.17;;;270.33;;
53977;SDS011;39886;47.984;-1.586;2022-08-16T01:30:54;487.65;;;272.67;;
53977;SDS011;39886;47.984;-1.586;2022-08-16T01:33:21;489.42;;;293.73;;
53977;SDS011;39886;47.984;-1.586;2022-08-16T01:38:33;487.08;;;271.60;;
53977;SDS011;39886;47.984;-1.586;2022-08-16T01:41:11;486.55;;;291.02;;
53977;SDS011;39886;47.984;-1.586;2022-08-16T01:43:43;487.52;;;264.40;;
53977;SDS011;39886;47.984;-1.586;2022-08-16T01:46:26;488.92;;;293.30;;
53977;SDS011;39886;47.984;-1.586;2022-08-16T01:48:59;486.63;;;269.73;;
53977;SDS011;39886;47.984;-1.586;2022-08-16T01:51:29;489.17;;;292.80;;
53977;SDS011;39886;47.984;-1.586;2022-08-16T01:53:55;488.52;;;292.38;;
53977;SDS011;39886;47.984;-1.586;2022-08-16T01:56:21;487.52;;;273.02;;
53977;SDS011;39886;47.984;-1.586;2022-08-16T01:58:48;487.90;;;292.55;;
53977;SDS011;39886;47.984;-1.586;2022-08-16T02:01:14;488.52;;;292.95;;
53977;SDS011;39886;47.984;-1.586;2022-08-16T02:03:40;488.70;;;292.70;;
53977;SDS011;39886;47.984;-1.586;2022-08-16T02:06:05;489.60;;;293.80;;
53977;SDS011;39886;47.984;-1.586;2022-08-16T02:08:32;487.60;;;293.15;;
53977;SDS011;39886;47.984;-1.586;2022-08-16T02:10:58;486.13;;;267.45;;
53977;SDS011;39886;47.984;-1.586;2022-08-16T02:13:26;485.75;;;270.92;;
53977;SDS011;39886;47.984;-1.586;2022-08-16T02:15:52;486.02;;;268.63;;
53977;SDS011;39886;47.984;-1.586;2022-08-16T02:18:18;484.42;;;269.63;;
53977;SDS011;39886;47.984;-1.586;2022-08-16T02:20:45;487.02;;;292.45;;
53977;SDS011;39886;47.984;-1.586;2022-08-16T02:23:13;484.63;;;270.98;;
53977;SDS011;39886;47.984;-1.586;2022-08-16T02:25:40;485.65;;;270.23;;
53977;SDS011;39886;47.984;-1.586;2022-08-16T02:28:06;485.27;;;271.80;;
53977;SDS011;39886;47.984;-1.586;2022-08-16T02:30:31;484.70;;;268.35;;
53977;SDS011;39886;47.984;-1.586;2022-08-16T02:32:57;486.70;;;292.95;;
53977;SDS011;39886;47.984;-1.586;2022-08-16T02:35:24;485.67;;;263.45;;
53977;SDS011;39886;47.984;-1.586;2022-08-16T02:37:51;486.67;;;293.23;;
53977;SDS011;39886;47.984;-1.586;2022-08-16T02:40:18;484.98;;;272.70;;
53977;SDS011;39886;47.984;-1.586;2022-08-16T02:42:46;484.50;;;269.88;;
53977;SDS011;39886;47.984;-1.586;2022-08-16T02:45:12;486.10;;;293.23;;
53977;SDS011;39886;47.984;-1.586;2022-08-16T02:47:38;486.15;;;271.65;;
53977;SDS011;39886;47.984;-1.586;2022-08-16T02:50:05;487.08;;;268.98;;
53977;SDS011;39886;47.984;-1.586;2022-08-16T02:52:32;487.33;;;272.10;;
53977;SDS011;39886;47.984;-1.586;2022-08-16T02:54:58;485.80;;;292.52;;
53977;SDS011;39886;47.984;-1.586;2022-08-16T02:57:24;483.42;;;267.88;;
53977;SDS011;39886;47.984;-1.586;2022-08-16T02:59:50;485.33;;;272.23;;
53977;SDS011;39886;47.984;-1.586;2022-08-16T03:02:16;484.42;;;271.83;;
53977;SDS011;39886;47.984;-1.586;2022-08-16T03:04:42;486.77;;;292.35;;
53977;SDS011;39886;47.984;-1.586;2022-08-16T03:07:08;485.33;;;291.77;;
53977;SDS011;39886;47.984;-1.586;2022-08-16T03:09:36;486.08;;;292.35;;
53977;SDS011;39886;47.984;-1.586;2022-08-16T03:12:02;482.98;;;267.67;;
53977;SDS011;39886;47.984;-1.586;2022-08-16T03:14:29;484.85;;;273.42;;
53977;SDS011;39886;47.984;-1.586;2022-08-16T03:16:55;484.33;;;291.45;;
53977;SDS011;39886;47.984;-1.586;2022-08-16T03:19:21;484.05;;;291.55;;
53977;SDS011;39886;47.984;-1.586;2022-08-16T03:21:47;484.50;;;264.83;;
53977;SDS011;39886;47.984;-1.586;2022-08-16T03:24:13;483.42;;;269.40;;
53977;SDS011;39886;47.984;-1.586;2022-08-16T03:26:39;481.98;;;270.23;;
53977;SDS011;39886;47.984;-1.586;2022-08-16T03:29:05;485.02;;;292.35;;
53977;SDS011;39886;47.984;-1.586;2022-08-16T03:31:30;483.38;;;270.50;;
53977;SDS011;39886;47.984;-1.586;2022-08-16T03:33:56;484.02;;;290.08;;
53977;SDS011;39886;47.984;-1.586;2022-08-16T03:36:22;484.45;;;270.20;;
53977;SDS011;39886;47.984;-1.586;2022-08-16T03:38:48;482.33;;;268.48;;
53977;SDS011;39886;47.984;-1.586;2022-08-16T03:41:14;483.83;;;290.52;;
53977;SDS011;39886;47.984;-1.586;2022-08-16T03:43:39;484.80;;;292.45;;
53977;SDS011;39886;47.984;-1.586;2022-08-16T03:46:05;484.65;;;291.42;;
53977;SDS011;39886;47.984;-1.586;2022-08-16T03:48:33;482.80;;;272.15;;
53977;SDS011;39886;47.984;-1.586;2022-08-16T03:51:00;483.02;;;270.60;;
53977;SDS011;39886;47.984;-1.586;2022-08-16T03:53:28;483.92;;;292.50;;
53977;SDS011;39886;47.984;-1.586;2022-08-16T03:55:54;481.77;;;266.85;;
53977;SDS011;39886;47.984;-1.586;2022-08-16T03:58:20;482.55;;;290.25;;
53977;SDS011;39886;47.984;-1.586;2022-08-16T04:00:46;484.33;;;292.35;;
53977;SDS011;39886;47.984;-1.586;2022-08-16T04:03:13;482.27;;;270.00;;
53977;SDS011;39886;47.984;-1.586;2022-08-16T04:05:44;484.08;;;291.20;;
53977;SDS011;39886;47.984;-1.586;2022-08-16T04:10:38;477.38;;;268.20;;
53977;SDS011;39886;47.984;-1.586;2022-08-16T04:13:05;483.67;;;290.92;;
53977;SDS011;39886;47.984;-1.586;2022-08-16T04:15:30;481.02;;;270.42;;
53977;SDS011;39886;47.984;-1.586;2022-08-16T04:17:56;483.67;;;290.48;;
53977;SDS011;39886;47.984;-1.586;2022-08-16T04:20:23;483.02;;;271.60;;
53977;SDS011;39886;47.984;-1.586;2022-08-16T04:22:50;482.17;;;269.92;;
53977;SDS011;39886;47.984;-1.586;2022-08-16T04:25:16;483.08;;;290.67;;
53977;SDS011;39886;47.984;-1.586;2022-08-16T04:27:42;481.83;;;290.40;;
53977;SDS011;39886;47.984;-1.586;2022-08-16T04:30:12;482.52;;;291.17;;
53977;SDS011;39886;47.984;-1.586;2022-08-16T04:32:39;481.10;;;269.88;;
53977;SDS011;39886;47.984;-1.586;2022-08-16T04:35:07;482.33;;;290.17;;
53977;SDS011;39886;47.984;-1.586;2022-08-16T04:37:35;482.00;;;289.48;;
53977;SDS011;39886;47.984;-1.586;2022-08-16T04:40:02;481.83;;;268.50;;
53977;SDS011;39886;47.984;-1.586;2022-08-16T04:42:28;483.88;;;264.90;;
53977;SDS011;39886;47.984;-1.586;2022-08-16T04:44:54;481.50;;;269.17;;
53977;SDS011;39886;47.984;-1.586;2022-08-16T04:47:26;481.27;;;290.48;;
53977;SDS011;39886;47.984;-1.586;2022-08-16T04:49:55;481.45;;;270.42;;
53977;SDS011;39886;47.984;-1.586;2022-08-16T04:52:21;480.55;;;263.85;;
53977;SDS011;39886;47.984;-1.586;2022-08-16T04:54:48;481.52;;;270.88;;
53977;SDS011;39886;47.984;-1.586;2022-08-16T04:57:14;483.50;;;291.67;;
53977;SDS011;39886;47.984;-1.586;2022-08-16T04:59:40;481.08;;;267.75;;
53977;SDS011;39886;47.984;-1.586;2022-08-16T05:02:06;482.02;;;269.75;;
53977;SDS011;39886;47.984;-1.586;2022-08-16T05:04:32;481.05;;;289.05;;
53977;SDS011;39886;47.984;-1.586;2022-08-16T05:06:57;481.90;;;267.35;;
53977;SDS011;39886;47.984;-1.586;2022-08-16T05:09:23;480.73;;;288.88;;
53977;SDS011;39886;47.984;-1.586;2022-08-16T05:11:49;483.25;;;289.75;;
53977;SDS011;39886;47.984;-1.586;2022-08-16T05:14:15;482.15;;;291.42;;
53977;SDS011;39886;47.984;-1.586;2022-08-16T05:16:40;481.65;;;269.83;;
53977;SDS011;39886;47.984;-1.586;2022-08-16T05:19:07;482.63;;;268.70;;
53977;SDS011;39886;47.984;-1.586;2022-08-16T05:21:33;482.13;;;266.48;;
53977;SDS011;39886;47.984;-1.586;2022-08-16T05:23:59;481.65;;;289.27;;
53977;SDS011;39886;47.984;-1.586;2022-08-16T05:26:29;481.63;;;289.90;;
53977;SDS011;39886;47.984;-1.586;2022-08-16T05:28:57;481.80;;;289.27;;
53977;SDS011;39886;47.984;-1.586;2022-08-16T05:31:25;482.42;;;290.50;;
53977;SDS011;39886;47.984;-1.586;2022-08-16T05:33:52;481.35;;;288.25;;
53977;SDS011;39886;47.984;-1.586;2022-08-16T05:36:18;481.35;;;289.45;;
53977;SDS011;39886;47.984;-1.586;2022-08-16T05:38:45;482.60;;;289.42;;
53977;SDS011;39886;47.984;-1.586;2022-08-16T05:41:11;481.15;;;269.75;;
53977;SDS011;39886;47.984;-1.586;2022-08-16T05:43:37;481.73;;;289.77;;
53977;SDS011;39886;47.984;-1.586;2022-08-16T05:46:03;482.17;;;269.52;;
53977;SDS011;39886;47.984;-1.586;2022-08-16T05:48:29;481.48;;;271.25;;
53977;SDS011;39886;47.984;-1.586;2022-08-16T05:50:55;480.67;;;288.20;;
53977;SDS011;39886;47.984;-1.586;2022-08-16T05:53:21;482.48;;;289.83;;
53977;SDS011;39886;47.984;-1.586;2022-08-16T05:55:48;481.45;;;269.55;;
53977;SDS011;39886;47.984;-1.586;2022-08-16T05:58:14;481.63;;;267.75;;
53977;SDS011;39886;47.984;-1.586;2022-08-16T06:00:40;480.90;;;287.80;;
53977;SDS011;39886;47.984;-1.586;2022-08-16T06:03:05;482.15;;;269.98;;
53977;SDS011;39886;47.984;-1.586;2022-08-16T06:05:31;481.83;;;271.08;;
53977;SDS011;39886;47.984;-1.586;2022-08-16T06:07:57;482.67;;;289.80;;
53977;SDS011;39886;47.984;-1.586;2022-08-16T06:10:23;485.23;;;292.67;;
53977;SDS011;39886;47.984;-1.586;2022-08-16T06:12:48;486.95;;;293.33;;
53977;SDS011;39886;47.984;-1.586;2022-08-16T06:15:15;487.83;;;293.95;;
53977;SDS011;39886;47.984;-1.586;2022-08-16T06:17:43;485.88;;;293.42;;
53977;SDS011;39886;47.984;-1.586;2022-08-16T06:20:15;484.92;;;270.85;;
53977;SDS011;39886;47.984;-1.586;2022-08-16T06:22:43;488.98;;;272.75;;
53977;SDS011;39886;47.984;-1.586;2022-08-16T06:25:09;487.73;;;276.00;;
53977;SDS011;39886;47.984;-1.586;2022-08-16T06:27:36;488.98;;;295.20;;
53977;SDS011;39886;47.984;-1.586;2022-08-16T06:30:04;486.58;;;274.65;;
53977;SDS011;39886;47.984;-1.586;2022-08-16T06:32:31;491.42;;;296.75;;
53977;SDS011;39886;47.984;-1.586;2022-08-16T06:34:57;485.25;;;272.83;;
53977;SDS011;39886;47.984;-1.586;2022-08-16T06:37:23;488.02;;;276.83;;
53977;SDS011;39886;47.984;-1.586;2022-08-16T06:39:49;485.08;;;272.63;;
53977;SDS011;39886;47.984;-1.586;2022-08-16T06:42:15;486.73;;;271.83;;
53977;SDS011;39886;47.984;-1.586;2022-08-16T06:44:41;488.33;;;296.35;;
53977;SDS011;39886;47.984;-1.586;2022-08-16T06:47:07;488.85;;;279.25;;
53977;SDS011;39886;47.984;-1.586;2022-08-16T06:49:32;490.92;;;298.60;;
53977;SDS011;39886;47.984;-1.586;2022-08-16T06:51:58;490.67;;;280.80;;
53977;SDS011;39886;47.984;-1.586;2022-08-16T06:54:24;490.55;;;277.42;;
53977;SDS011;39886;47.984;-1.586;2022-08-16T06:56:50;487.23;;;276.13;;
53977;SDS011;39886;47.984;-1.586;2022-08-16T06:59:15;493.50;;;282.25;;
53977;SDS011;39886;47.984;-1.586;2022-08-16T07:01:41;496.67;;;280.73;;
53977;SDS011;39886;47.984;-1.586;2022-08-16T07:04:07;493.27;;;300.65;;
53977;SDS011;39886;47.984;-1.586;2022-08-16T07:06:33;489.58;;;297.65;;
53977;SDS011;39886;47.984;-1.586;2022-08-16T07:08:59;492.85;;;299.92;;
53977;SDS011;39886;47.984;-1.586;2022-08-16T07:11:24;488.40;;;276.33;;
53977;SDS011;39886;47.984;-1.586;2022-08-16T07:13:51;488.33;;;276.23;;
53977;SDS011;39886;47.984;-1.586;2022-08-16T07:16:17;497.73;;;300.02;;
53977;SDS011;39886;47.984;-1.586;2022-08-16T07:18:43;491.65;;;298.52;;
53977;SDS011;39886;47.984;-1.586;2022-08-16T07:21:12;495.33;;;279.95;;
53977;SDS011;39886;47.984;-1.586;2022-08-16T07:23:39;488.00;;;300.33;;
53977;SDS011;39886;47.984;-1.586;2022-08-16T07:26:06;494.73;;;300.98;;
53977;SDS011;39886;47.984;-1.586;2022-08-16T07:28:35;490.63;;;283.73;;
53977;SDS011;39886;47.984;-1.586;2022-08-16T07:31:02;491.55;;;301.42;;
53977;SDS011;39886;47.984;-1.586;2022-08-16T07:33:29;494.05;;;304.08;;
53977;SDS011;39886;47.984;-1.586;2022-08-16T07:35:57;485.42;;;281.30;;
53977;SDS011;39886;47.984;-1.586;2022-08-16T07:38:23;492.50;;;303.85;;
53977;SDS011;39886;47.984;-1.586;2022-08-16T07:40:51;491.33;;;303.27;;
53977;SDS011;39886;47.984;-1.586;2022-08-16T07:43:19;489.50;;;303.33;;
53977;SDS011;39886;47.984;-1.586;2022-08-16T07:45:45;489.75;;;280.52;;
53977;SDS011;39886;47.984;-1.586;2022-08-16T07:48:11;492.58;;;281.52;;
53977;SDS011;39886;47.984;-1.586;2022-08-16T07:50:36;490.33;;;283.25;;
53977;SDS011;39886;47.984;-1.586;2022-08-16T07:53:02;495.05;;;306.77;;
53977;SDS011;39886;47.984;-1.586;2022-08-16T07:55:28;490.58;;;305.55;;
53977;SDS011;39886;47.984;-1.586;2022-08-16T07:57:54;490.27;;;282.45;;
53977;SDS011;39886;47.984;-1.586;2022-08-16T08:00:20;494.50;;;311.10;;
53977;SDS011;39886;47.984;-1.586;2022-08-16T08:02:46;490.05;;;306.85;;
53977;SDS011;39886;47.984;-1.586;2022-08-16T08:05:13;487.75;;;303.77;;
53977;SDS011;39886;47.984;-1.586;2022-08-16T08:07:39;492.13;;;285.63;;
53977;SDS011;39886;47.984;-1.586;2022-08-16T08:10:05;489.15;;;273.25;;
53977;SDS011;39886;47.984;-1.586;2022-08-16T08:12:32;488.00;;;277.17;;
53977;SDS011;39886;47.984;-1.586;2022-08-16T08:14:57;487.63;;;277.35;;
53977;SDS011;39886;47.984;-1.586;2022-08-16T08:17:23;490.92;;;279.45;;
53977;SDS011;39886;47.984;-1.586;2022-08-16T08:19:49;485.45;;;279.30;;
53977;SDS011;39886;47.984;-1.586;2022-08-16T08:22:15;489.70;;;300.02;;
53977;SDS011;39886;47.984;-1.586;2022-08-16T08:24:41;486.02;;;279.63;;
53977;SDS011;39886;47.984;-1.586;2022-08-16T08:27:06;486.45;;;275.85;;
53977;SDS011;39886;47.984;-1.586;2022-08-16T08:29:33;490.75;;;296.00;;
53977;SDS011;39886;47.984;-1.586;2022-08-16T08:32:00;484.25;;;272.85;;
53977;SDS011;39886;47.984;-1.586;2022-08-16T08:34:27;485.80;;;273.30;;
53977;SDS011;39886;47.984;-1.586;2022-08-16T08:36:53;483.50;;;276.10;;
53977;SDS011;39886;47.984;-1.586;2022-08-16T08:39:18;486.60;;;293.48;;
53977;SDS011;39886;47.984;-1.586;2022-08-16T08:41:44;484.80;;;294.95;;
53977;SDS011;39886;47.984;-1.586;2022-08-16T08:44:12;485.88;;;297.42;;
53977;SDS011;39886;47.984;-1.586;2022-08-16T08:46:38;487.98;;;299.77;;
53977;SDS011;39886;47.984;-1.586;2022-08-16T08:49:04;484.52;;;274.75;;
53977;SDS011;39886;47.984;-1.586;2022-08-16T08:51:32;488.15;;;294.05;;
53977;SDS011;39886;47.984;-1.586;2022-08-16T08:53:59;484.00;;;272.05;;
53977;SDS011;39886;47.984;-1.586;2022-08-16T08:56:28;488.58;;;280.70;;
53977;SDS011;39886;47.984;-1.586;2022-08-16T08:58:55;487.63;;;283.35;;
53977;SDS011;39886;47.984;-1.586;2022-08-16T09:01:23;490.38;;;281.73;;
53977;SDS011;39886;47.984;-1.586;2022-08-16T09:03:59;486.23;;;297.17;;
53977;SDS011;39886;47.984;-1.586;2022-08-16T09:06:27;486.42;;;296.33;;
53977;SDS011;39886;47.984;-1.586;2022-08-16T09:08:55;488.05;;;278.25;;
53977;SDS011;39886;47.984;-1.586;2022-08-16T09:11:21;486.23;;;275.00;;
53977;SDS011;39886;47.984;-1.586;2022-08-16T09:13:47;488.15;;;295.73;;
53977;SDS011;39886;47.984;-1.586;2022-08-16T09:16:13;483.77;;;292.45;;
53977;SDS011;39886;47.984;-1.586;2022-08-16T09:18:40;485.00;;;272.15;;
53977;SDS011;39886;47.984;-1.586;2022-08-16T09:21:06;485.38;;;273.20;;
53977;SDS011;39886;47.984;-1.586;2022-08-16T09:23:32;485.05;;;275.85;;
53977;SDS011;39886;47.984;-1.586;2022-08-16T09:26:00;483.17;;;294.20;;
53977;SDS011;39886;47.984;-1.586;2022-08-16T09:28:26;481.95;;;291.60;;
53977;SDS011;39886;47.984;-1.586;2022-08-16T09:30:53;481.15;;;288.83;;
53977;SDS011;39886;47.984;-1.586;2022-08-16T09:33:19;484.13;;;291.05;;
53977;SDS011;39886;47.984;-1.586;2022-08-16T09:35:45;487.13;;;289.63;;
53977;SDS011;39886;47.984;-1.586;2022-08-16T09:38:13;481.80;;;293.25;;
53977;SDS011;39886;47.984;-1.586;2022-08-16T09:40:40;488.45;;;274.58;;
53977;SDS011;39886;47.984;-1.586;2022-08-16T09:43:07;482.83;;;289.95;;
53977;SDS011;39886;47.984;-1.586;2022-08-16T09:45:34;484.70;;;269.88;;
53977;SDS011;39886;47.984;-1.586;2022-08-16T09:48:04;480.40;;;288.13;;
53977;SDS011;39886;47.984;-1.586;2022-08-16T09:50:31;486.58;;;293.15;;
53977;SDS011;39886;47.984;-1.586;2022-08-16T09:52:56;482.80;;;270.63;;
53977;SDS011;39886;47.984;-1.586;2022-08-16T09:55:23;483.80;;;288.75;;
53977;SDS011;39886;47.984;-1.586;2022-08-16T09:57:49;484.90;;;288.52;;
53977;SDS011;39886;47.984;-1.586;2022-08-16T10:00:15;481.67;;;265.88;;
53977;SDS011;39886;47.984;-1.586;2022-08-16T10:02:41;489.15;;;288.98;;
53977;SDS011;39886;47.984;-1.586;2022-08-16T10:05:07;483.60;;;265.67;;
53977;SDS011;39886;47.984;-1.586;2022-08-16T10:07:35;484.58;;;286.73;;
53977;SDS011;39886;47.984;-1.586;2022-08-16T10:10:01;485.35;;;265.73;;
53977;SDS011;39886;47.984;-1.586;2022-08-16T10:12:28;486.45;;;287.83;;
53977;SDS011;39886;47.984;-1.586;2022-08-16T10:15:17;482.88;;;266.55;;
53977;SDS011;39886;47.984;-1.586;2022-08-16T10:17:46;484.70;;;266.80;;
53977;SDS011;39886;47.984;-1.586;2022-08-16T10:20:14;484.65;;;268.33;;
53977;SDS011;39886;47.984;-1.586;2022-08-16T10:22:40;484.48;;;267.88;;
53977;SDS011;39886;47.984;-1.586;2022-08-16T10:25:06;485.20;;;285.13;;
53977;SDS011;39886;47.984;-1.586;2022-08-16T10:27:32;486.38;;;287.35;;
53977;SDS011;39886;47.984;-1.586;2022-08-16T10:30:02;483.63;;;268.05;;
53977;SDS011;39886;47.984;-1.586;2022-08-16T10:32:29;485.88;;;289.10;;
53977;SDS011;39886;47.984;-1.586;2022-08-16T10:34:55;483.38;;;286.52;;
53977;SDS011;39886;47.984;-1.586;2022-08-16T10:37:21;484.40;;;264.42;;
53977;SDS011;39886;47.984;-1.586;2022-08-16T10:39:47;486.83;;;287.17;;
53977;SDS011;39886;47.984;-1.586;2022-08-16T10:42:13;483.80;;;286.70;;
53977;SDS011;39886;47.984;-1.586;2022-08-16T10:44:41;485.17;;;269.13;;
53977;SDS011;39886;47.984;-1.586;2022-08-16T10:47:07;481.58;;;264.67;;
53977;SDS011;39886;47.984;-1.586;2022-08-16T10:49:34;482.38;;;268.35;;
53977;SDS011;39886;47.984;-1.586;2022-08-16T10:52:00;483.13;;;287.15;;
53977;SDS011;39886;47.984;-1.586;2022-08-16T10:54:27;482.65;;;266.92;;
53977;SDS011;39886;47.984;-1.586;2022-08-16T10:56:53;483.20;;;285.92;;
53977;SDS011;39886;47.984;-1.586;2022-08-16T10:59:20;481.85;;;285.52;;
53977;SDS011;39886;47.984;-1.586;2022-08-16T11:01:46;484.20;;;286.55;;
53977;SDS011;39886;47.984;-1.586;2022-08-16T11:04:12;484.25;;;287.73;;
53977;SDS011;39886;47.984;-1.586;2022-08-16T11:06:38;482.63;;;287.35;;
53977;SDS011;39886;47.984;-1.586;2022-08-16T11:09:05;485.52;;;288.25;;
53977;SDS011;39886;47.984;-1.586;2022-08-16T11:11:30;483.15;;;287.98;;
53977;SDS011;39886;47.984;-1.586;2022-08-16T11:13:56;481.63;;;286.70;;
53977;SDS011;39886;47.984;-1.586;2022-08-16T11:16:22;483.15;;;287.33;;
53977;SDS011;39886;47.984;-1.586;2022-08-16T11:18:48;485.45;;;288.25;;
53977;SDS011;39886;47.984;-1.586;2022-08-16T11:21:14;482.23;;;267.55;;
53977;SDS011;39886;47.984;-1.586;2022-08-16T11:23:40;484.45;;;289.65;;
53977;SDS011;39886;47.984;-1.586;2022-08-16T11:26:06;484.90;;;268.92;;
53977;SDS011;39886;47.984;-1.586;2022-08-16T11:28:33;482.45;;;268.15;;
53977;SDS011;39886;47.984;-1.586;2022-08-16T11:30:59;482.33;;;266.92;;
53977;SDS011;39886;47.984;-1.586;2022-08-16T11:33:26;484.80;;;266.95;;
53977;SDS011;39886;47.984;-1.586;2022-08-16T11:35:51;484.35;;;287.98;;
53977;SDS011;39886;47.984;-1.586;2022-08-16T11:38:19;483.73;;;289.05;;
53977;SDS011;39886;47.984;-1.586;2022-08-16T11:40:47;483.65;;;268.77;;
53977;SDS011;39886;47.984;-1.586;2022-08-16T11:43:17;481.33;;;286.13;;
53977;SDS011;39886;47.984;-1.586;2022-08-16T11:45:46;484.48;;;288.75;;
53977;SDS011;39886;47.984;-1.586;2022-08-16T11:48:13;482.65;;;270.35;;
53977;SDS011;39886;47.984;-1.586;2022-08-16T11:50:41;481.40;;;269.60;;
53977;SDS011;39886;47.984;-1.586;2022-08-16T11:53:08;482.98;;;288.52;;
53977;SDS011;39886;47.984;-1.586;2022-08-16T11:55:34;484.10;;;269.05;;
53977;SDS011;39886;47.984;-1.586;2022-08-16T11:58:01;483.20;;;271.42;;
53977;SDS011;39886;47.984;-1.586;2022-08-16T12:00:28;483.55;;;271.70;;
53977;SDS011;39886;47.984;-1.586;2022-08-16T12:02:55;485.90;;;273.02;;
53977;SDS011;39886;47.984;-1.586;2022-08-16T12:05:22;483.40;;;271.02;;
53977;SDS011;39886;47.984;-1.586;2022-08-16T12:07:50;482.25;;;288.38;;
53977;SDS011;39886;47.984;-1.586;2022-08-16T12:10:16;483.98;;;270.85;;
53977;SDS011;39886;47.984;-1.586;2022-08-16T12:12:44;481.02;;;270.05;;
53977;SDS011;39886;47.984;-1.586;2022-08-16T12:15:11;483.73;;;271.77;;
53977;SDS011;39886;47.984;-1.586;2022-08-16T12:17:38;484.42;;;270.92;;
53977;SDS011;39886;47.984;-1.586;2022-08-16T12:20:18;485.75;;;272.42;;
53977;SDS011;39886;47.984;-1.586;2022-08-16T12:22:46;480.85;;;268.23;;
53977;SDS011;39886;47.984;-1.586;2022-08-16T12:25:14;483.75;;;272.20;;
53977;SDS011;39886;47.984;-1.586;2022-08-16T12:27:41;484.50;;;265.10;;
53977;SDS011;39886;47.984;-1.586;2022-08-16T12:30:08;485.63;;;270.77;;
53977;SDS011;39886;47.984;-1.586;2022-08-16T12:32:35;487.15;;;292.83;;
53977;SDS011;39886;47.984;-1.586;2022-08-16T12:35:01;486.45;;;292.95;;
53977;SDS011;39886;47.984;-1.586;2022-08-16T12:37:27;481.15;;;270.88;;
53977;SDS011;39886;47.984;-1.586;2022-08-16T12:39:53;482.67;;;271.30;;
53977;SDS011;39886;47.984;-1.586;2022-08-16T12:42:21;482.08;;;269.65;;
53977;SDS011;39886;47.984;-1.586;2022-08-16T12:44:47;482.92;;;291.05;;
53977;SDS011;39886;47.984;-1.586;2022-08-16T12:47:14;485.75;;;264.73;;
53977;SDS011;39886;47.984;-1.586;2022-08-16T12:49:59;482.70;;;269.45;;
53977;SDS011;39886;47.984;-1.586;2022-08-16T12:52:25;481.88;;;270.08;;
53977;SDS011;39886;47.984;-1.586;2022-08-16T12:54:52;485.73;;;269.95;;
53977;SDS011;39886;47.984;-1.586;2022-08-16T12:57:19;484.13;;;290.60;;
53977;SDS011;39886;47.984;-1.586;2022-08-16T12:59:47;484.95;;;271.73;;
53977;SDS011;39886;47.984;-1.586;2022-08-16T13:02:13;480.60;;;265.90;;
53977;SDS011;39886;47.984;-1.586;2022-08-16T13:04:39;488.23;;;294.08;;
53977;SDS011;39886;47.984;-1.586;2022-08-16T13:07:05;483.00;;;290.10;;
53977;SDS011;39886;47.984;-1.586;2022-08-16T13:09:32;483.73;;;291.13;;
53977;SDS011;39886;47.984;-1.586;2022-08-16T13:14:31;481.50;;;262.55;;
53977;SDS011;39886;47.984;-1.586;2022-08-16T13:17:03;484.33;;;269.48;;
53977;SDS011;39886;47.984;-1.586;2022-08-16T13:19:31;486.15;;;292.38;;
53977;SDS011;39886;47.984;-1.586;2022-08-16T13:21:56;486.73;;;293.17;;
53977;SDS011;39886;47.984;-1.586;2022-08-16T13:24:22;484.67;;;291.27;;
53977;SDS011;39886;47.984;-1.586;2022-08-16T13:26:48;484.88;;;268.77;;
53977;SDS011;39886;47.984;-1.586;2022-08-16T13:29:14;481.75;;;267.23;;
53977;SDS011;39886;47.984;-1.586;2022-08-16T13:31:40;486.05;;;292.33;;
53977;SDS011;39886;47.984;-1.586;2022-08-16T13:34:05;484.73;;;271.58;;
53977;SDS011;39886;47.984;-1.586;2022-08-16T13:36:31;483.75;;;291.60;;
53977;SDS011;39886;47.984;-1.586;2022-08-16T13:38:57;486.67;;;292.83;;
53977;SDS011;39886;47.984;-1.586;2022-08-16T13:41:23;484.98;;;293.20;;
53977;SDS011;39886;47.984;-1.586;2022-08-16T13:43:51;486.92;;;274.48;;
53977;SDS011;39886;47.984;-1.586;2022-08-16T13:46:17;484.77;;;293.17;;
53977;SDS011;39886;47.984;-1.586;2022-08-16T13:48:43;491.67;;;276.58;;
53977;SDS011;39886;47.984;-1.586;2022-08-16T13:51:09;487.42;;;272.33;;